Decoded Metar for KRCX (LADYSMITH/RUSK in WI, USA) (IATA:RCX) | Meteo·Mobile Aviation Weather
aviador You're here:

KRCX Decoded Metar

LADYSMITH/RUSK in WI, USA
Report Time2018-11-16 06:55:00
UTC Time2018-11-16 07:11:45
Flight Rules mvfr MVFR
Wind290° at 05 kt
W.Decomp.*RWY 32: 4.3 kt HW 2.5 kt LCW
RWY 01: 0.9 kt HW 4.9 kt LCW
W.Rank290° ranks 8
Current wind is below 290° avg. (8.4)
Visibility9999 m
Phenomena:N/A
Clouds:Broken 018 Hf
Broken 026 Hf
Overcast 036 Hf
Expected CloudBase > 400 ft AGL from Temp-Dew spread
Ceiling1,800 ft
Temp00°C (ISA -13)
Dew Point-1°C (93% RH)
AAT-3.9°C
QNH1007 hPa
Density Alt-3 ft
Elevation1,237 ft
Report Wrong Elevation
Raw Report
KRCX 160655Z AUTO 29005KT 7SM BKN018 BKN026 OVC036 00/M01 A2973
RMK AO2 T10031011=

Extra information for KRCX:More info

Metar Taf Metar & Taf Last 4 Metars F.Rules Stats Wind Profile Meteogram Temp Stats Airport Information Weather charts Add Link Nearby VenuesMetar ALERT Operation Metar Decoded Social comments

AIRNAV info for KRCX